Time;durP1;ratioP1;P1;durP2;ratioP2;P2;SDS_P1;SDS_P2;PMS_P1;PMS_P2;Temp;Humidity;BMP_temperature;BMP_pressure;BME280_temperature;BME280_humidity;BME280_pressure;Samples;Min_cycle;Max_cycle;Signal;HPM_P1;HPM_P2
2024/01/23 00:04:18;;;;;;;3.33;1.10;;;;;;;;;;10312837;28;20216;-70
2024/01/23 00:09:19;;;;;;;2.30;0.70;;;;;;;;;;10303814;28;20197;-69
2024/01/23 00:14:20;;;;;;;1.48;0.60;;;;;;;;;;10310231;28;20224;-68
2024/01/23 00:19:21;;;;;;;1.58;0.70;;;;;;;;;;10310966;28;20819;-69
2024/01/23 00:24:22;;;;;;;4.20;0.60;;;;;;;;;;10307046;28;20213;-69
2024/01/23 00:29:23;;;;;;;2.38;0.77;;;;;;;;;;10327627;28;20244;-69
2024/01/23 00:34:24;;;;;;;1.77;0.77;;;;;;;;;;10302283;28;20267;-70
2024/01/23 00:39:25;;;;;;;1.05;0.65;;;;;;;;;;10311476;28;20650;-69
2024/01/23 00:44:26;;;;;;;4.18;0.75;;;;;;;;;;10302580;28;20209;-69
2024/01/23 00:49:27;;;;;;;1.95;0.40;;;;;;;;;;10304657;28;20193;-69
2024/01/23 00:54:28;;;;;;;1.20;0.50;;;;;;;;;;10315104;28;20229;-69
2024/01/23 00:59:29;;;;;;;5.88;1.00;;;;;;;;;;10325871;28;20671;-68
2024/01/23 01:04:30;;;;;;;1.35;0.80;;;;;;;;;;10294799;28;20220;-69
2024/01/23 01:09:31;;;;;;;1.95;0.90;;;;;;;;;;10311038;28;20197;-68
2024/01/23 01:14:33;;;;;;;3.50;0.70;;;;;;;;;;10318409;28;20209;-68
2024/01/23 01:19:34;;;;;;;3.90;0.60;;;;;;;;;;10312174;28;20554;-70
2024/01/23 01:24:35;;;;;;;3.00;0.50;;;;;;;;;;10294060;28;20201;-68
2024/01/23 01:29:36;;;;;;;4.32;0.77;;;;;;;;;;10306396;28;20618;-68
2024/01/23 01:34:37;;;;;;;2.70;0.50;;;;;;;;;;10275720;28;20231;-68
2024/01/23 01:39:38;;;;;;;1.48;0.52;;;;;;;;;;10260036;28;20656;-68
2024/01/23 01:44:39;;;;;;;4.47;0.52;;;;;;;;;;10274722;28;20211;-68
2024/01/23 01:49:40;;;;;;;1.75;0.55;;;;;;;;;;10262190;28;20189;-68
2024/01/23 01:54:43;;;;;;;1.27;1.23;;;;;;;;;;10260913;28;20323;-68
2024/01/23 01:59:44;;;;;;;0.75;0.50;;;;;;;;;;10251313;28;20185;-69
2024/01/23 02:04:45;;;;;;;1.27;0.20;;;;;;;;;;10298403;28;20216;-68
2024/01/23 02:09:46;;;;;;;0.28;0.20;;;;;;;;;;10278193;28;20223;-68
2024/01/23 02:14:47;;;;;;;0.30;0.20;;;;;;;;;;10284463;28;20215;-68
2024/01/23 02:19:50;;;;;;;2.88;0.50;;;;;;;;;;10293113;28;20284;-68
2024/01/23 02:24:51;;;;;;;0.50;0.15;;;;;;;;;;10300350;28;20819;-69
2024/01/23 02:29:53;;;;;;;0.98;0.20;;;;;;;;;;10283583;28;20276;-68
2024/01/23 02:34:54;;;;;;;0.57;0.13;;;;;;;;;;10240771;28;20902;-68
2024/01/23 02:39:55;;;;;;;1.90;0.20;;;;;;;;;;10246129;28;20254;-68
2024/01/23 02:44:56;;;;;;;1.25;0.10;;;;;;;;;;10241178;28;20302;-68
2024/01/23 02:49:57;;;;;;;2.28;0.20;;;;;;;;;;10256873;28;20192;-68
2024/01/23 02:54:58;;;;;;;0.20;0.15;;;;;;;;;;10236760;28;20245;-68
2024/01/23 02:59:59;;;;;;;3.40;0.20;;;;;;;;;;10255993;28;20196;-68
2024/01/23 03:05:00;;;;;;;1.88;0.10;;;;;;;;;;10296536;28;20725;-68
2024/01/23 03:10:02;;;;;;;0.20;0.20;;;;;;;;;;10288757;28;20192;-67
2024/01/23 03:15:03;;;;;;;1.73;0.38;;;;;;;;;;10301052;28;20235;-68
2024/01/23 03:20:05;;;;;;;0.82;0.20;;;;;;;;;;10309601;28;20324;-69
2024/01/23 03:25:06;;;;;;;0.20;0.20;;;;;;;;;;10299024;28;20311;-68
2024/01/23 03:30:07;;;;;;;0.90;0.30;;;;;;;;;;10300852;28;20224;-68
2024/01/23 03:35:08;;;;;;;0.47;0.17;;;;;;;;;;10301316;28;20276;-67
2024/01/23 03:40:10;;;;;;;1.10;0.20;;;;;;;;;;10300838;28;20559;-68
2024/01/23 03:45:11;;;;;;;2.17;0.22;;;;;;;;;;10307175;28;20239;-67
2024/01/23 03:50:12;;;;;;;1.50;0.47;;;;;;;;;;10303512;28;20271;-68
2024/01/23 03:55:13;;;;;;;6.22;0.52;;;;;;;;;;10307380;28;20612;-68
2024/01/23 04:00:14;;;;;;;1.65;0.40;;;;;;;;;;10300135;28;20193;-68
2024/01/23 04:05:15;;;;;;;7.97;0.73;;;;;;;;;;10323234;28;20833;-67
2024/01/23 04:10:16;;;;;;;5.38;0.70;;;;;;;;;;10301138;28;20248;-68
2024/01/23 04:15:17;;;;;;;2.70;0.52;;;;;;;;;;10307230;28;20217;-68
2024/01/23 04:20:18;;;;;;;1.20;0.60;;;;;;;;;;10301713;28;21488;-68
2024/01/23 04:25:19;;;;;;;1.38;0.30;;;;;;;;;;10315372;28;20219;-68
2024/01/23 04:30:21;;;;;;;2.28;0.47;;;;;;;;;;10320505;28;20189;-68
2024/01/23 04:35:22;;;;;;;3.58;0.77;;;;;;;;;;10322491;28;20220;-68
2024/01/23 04:40:23;;;;;;;2.97;0.70;;;;;;;;;;10317738;28;20216;-68
2024/01/23 04:45:24;;;;;;;1.95;0.80;;;;;;;;;;10298220;28;20346;-68
2024/01/23 04:50:25;;;;;;;3.25;0.70;;;;;;;;;;10311290;28;20189;-68
2024/01/23 04:55:26;;;;;;;4.80;0.60;;;;;;;;;;10319103;28;20224;-68
2024/01/23 05:00:27;;;;;;;6.78;0.50;;;;;;;;;;10310830;28;20200;-68
2024/01/23 05:05:29;;;;;;;4.25;0.93;;;;;;;;;;10267275;28;20687;-68
2024/01/23 05:10:30;;;;;;;5.00;0.77;;;;;;;;;;10254746;28;22958;-68
2024/01/23 05:15:31;;;;;;;4.15;0.68;;;;;;;;;;10240193;28;20213;-68
2024/01/23 05:20:32;;;;;;;3.63;0.55;;;;;;;;;;10255794;28;20186;-68
2024/01/23 05:25:33;;;;;;;3.28;0.88;;;;;;;;;;10257526;28;20214;-68
2024/01/23 05:30:34;;;;;;;5.30;0.82;;;;;;;;;;10277965;28;20225;-68
2024/01/23 05:35:35;;;;;;;6.55;0.90;;;;;;;;;;10260256;28;20810;-68
2024/01/23 05:40:36;;;;;;;1.25;0.73;;;;;;;;;;10266260;28;20192;-70
2024/01/23 05:45:37;;;;;;;6.38;0.90;;;;;;;;;;10269790;28;20256;-68
2024/01/23 05:50:38;;;;;;;10.63;0.88;;;;;;;;;;10272355;28;20273;-68
2024/01/23 05:55:39;;;;;;;3.92;0.80;;;;;;;;;;10271099;28;20316;-68
2024/01/23 06:00:40;;;;;;;9.00;0.95;;;;;;;;;;10240927;28;20229;-68
2024/01/23 06:05:41;;;;;;;4.72;1.38;;;;;;;;;;10293892;28;20209;-69
2024/01/23 06:10:42;;;;;;;0.55;0.30;;;;;;;;;;10281713;28;20199;-69
2024/01/23 06:15:44;;;;;;;3.50;0.95;;;;;;;;;;10295870;28;20311;-69
2024/01/23 06:20:45;;;;;;;3.55;0.80;;;;;;;;;;10299720;28;20192;-69
2024/01/23 06:25:46;;;;;;;3.83;0.50;;;;;;;;;;10316529;28;20232;-70
2024/01/23 06:30:47;;;;;;;3.83;0.60;;;;;;;;;;10288886;28;20275;-69
2024/01/23 06:35:48;;;;;;;1.42;0.57;;;;;;;;;;10296838;28;21543;-69
2024/01/23 06:40:49;;;;;;;2.75;0.43;;;;;;;;;;10300532;28;20251;-71
2024/01/23 06:45:50;;;;;;;2.30;0.75;;;;;;;;;;10295777;28;20225;-69
2024/01/23 06:50:52;;;;;;;2.35;0.47;;;;;;;;;;10302154;28;20197;-69
2024/01/23 06:55:53;;;;;;;4.00;0.63;;;;;;;;;;10330491;28;20219;-70
2024/01/23 07:00:53;;;;;;;2.47;0.75;;;;;;;;;;10307567;28;20742;-70
2024/01/23 07:05:55;;;;;;;2.15;0.50;;;;;;;;;;10264493;28;20319;-70
2024/01/23 07:10:55;;;;;;;5.75;0.95;;;;;;;;;;10257362;28;20209;-70
2024/01/23 07:15:56;;;;;;;3.92;0.70;;;;;;;;;;10262733;28;20838;-70
2024/01/23 07:20:58;;;;;;;6.88;0.98;;;;;;;;;;10257711;28;20268;-69
2024/01/23 07:25:59;;;;;;;2.67;0.82;;;;;;;;;;10258515;28;20216;-70
2024/01/23 07:31:00;;;;;;;0.80;0.80;;;;;;;;;;10263483;28;20216;-69
2024/01/23 07:36:01;;;;;;;4.60;0.90;;;;;;;;;;10308622;28;20220;-69
2024/01/23 07:41:02;;;;;;;1.92;0.52;;;;;;;;;;10311311;28;20249;-69
2024/01/23 07:46:03;;;;;;;5.75;1.10;;;;;;;;;;10303587;28;20299;-69
2024/01/23 07:51:04;;;;;;;4.22;0.60;;;;;;;;;;10287464;28;20198;-69
2024/01/23 07:56:06;;;;;;;4.35;1.15;;;;;;;;;;10317300;28;20691;-70
2024/01/23 08:01:07;;;;;;;6.18;0.82;;;;;;;;;;10305250;28;20209;-70
2024/01/23 08:06:08;;;;;;;2.97;0.77;;;;;;;;;;10313112;28;20870;-70
2024/01/23 08:11:08;;;;;;;8.18;0.90;;;;;;;;;;10312881;28;20188;-69
2024/01/23 08:16:10;;;;;;;2.88;0.80;;;;;;;;;;10309928;28;20272;-70
2024/01/23 08:21:11;;;;;;;2.50;0.50;;;;;;;;;;10288975;28;20227;-70
2024/01/23 08:26:12;;;;;;;1.55;0.73;;;;;;;;;;10303730;28;20224;-69
2024/01/23 08:31:13;;;;;;;1.75;0.57;;;;;;;;;;10280074;28;20650;-70
2024/01/23 08:36:14;;;;;;;6.05;0.77;;;;;;;;;;10256563;28;20227;-70
2024/01/23 08:41:15;;;;;;;6.40;0.88;;;;;;;;;;10243978;28;20629;-69
2024/01/23 08:46:16;;;;;;;3.35;0.60;;;;;;;;;;10255168;28;21337;-69
2024/01/23 08:51:17;;;;;;;8.98;0.73;;;;;;;;;;10271560;28;20272;-69
2024/01/23 08:56:23;;;;;;;12.02;0.98;;;;;;;;;;10261965;28;20225;-69
2024/01/23 09:01:24;;;;;;;7.07;1.52;;;;;;;;;;10268811;28;20233;-69
2024/01/23 09:06:25;;;;;;;4.22;0.82;;;;;;;;;;10267038;28;20210;-70
2024/01/23 09:11:26;;;;;;;4.53;1.02;;;;;;;;;;10269683;28;20679;-69
2024/01/23 09:16:27;;;;;;;7.28;1.13;;;;;;;;;;10269431;28;20271;-69
2024/01/23 09:21:28;;;;;;;7.75;1.00;;;;;;;;;;10259365;28;20197;-69
2024/01/23 09:26:29;;;;;;;4.82;0.80;;;;;;;;;;10268078;28;20296;-69
2024/01/23 09:31:30;;;;;;;7.70;1.77;;;;;;;;;;10248357;28;20216;-69
2024/01/23 09:36:31;;;;;;;6.82;0.98;;;;;;;;;;10275833;28;20216;-70
2024/01/23 09:41:34;;;;;;;4.63;0.65;;;;;;;;;;10303419;28;20187;-70
2024/01/23 09:46:37;;;;;;;3.17;0.82;;;;;;;;;;10284888;28;20197;-69
2024/01/23 09:51:40;;;;;;;2.78;0.90;;;;;;;;;;10299790;28;20189;-69
2024/01/23 09:56:41;;;;;;;7.97;1.38;;;;;;;;;;10300951;28;20268;-69
2024/01/23 10:01:43;;;;;;;5.72;1.33;;;;;;;;;;10293072;28;20201;-69
2024/01/23 10:06:44;;;;;;;6.82;1.38;;;;;;;;;;10292689;28;20223;-69
2024/01/23 10:11:45;;;;;;;4.78;1.05;;;;;;;;;;10293871;28;20326;-70
2024/01/23 10:16:47;;;;;;;5.93;1.45;;;;;;;;;;10311396;28;20232;-69
2024/01/23 10:21:48;;;;;;;7.65;1.02;;;;;;;;;;10291349;28;20219;-70
2024/01/23 10:26:49;;;;;;;7.97;0.95;;;;;;;;;;10308245;28;20803;-69
2024/01/23 10:31:51;;;;;;;8.60;1.42;;;;;;;;;;10305102;28;20720;-71
2024/01/23 10:36:55;;;;;;;6.15;1.33;;;;;;;;;;10301962;28;20759;-71
2024/01/23 10:41:56;;;;;;;4.03;1.58;;;;;;;;;;10319714;28;20798;-70
2024/01/23 10:46:57;;;;;;;6.45;1.30;;;;;;;;;;10307323;28;20224;-70
2024/01/23 10:52:04;;;;;;;7.22;1.40;;;;;;;;;;10294083;28;20904;-70
2024/01/23 10:57:08;;;;;;;10.60;1.50;;;;;;;;;;10299826;28;20331;-70
2024/01/23 11:02:16;;;;;;;4.28;1.35;;;;;;;;;;10297465;28;20216;-70
2024/01/23 11:07:36;;;;;;;10.30;1.23;;;;;;;;;;10299888;28;20718;-70
2024/01/23 11:12:51;;;;;;;8.18;1.73;;;;;;;;;;10298890;28;21425;-70
2024/01/23 11:17:53;;;;;;;6.72;1.40;;;;;;;;;;10300018;28;20726;-70
2024/01/23 11:22:54;;;;;;;9.27;1.20;;;;;;;;;;10273717;28;20205;-70
2024/01/23 11:27:55;;;;;;;6.55;1.20;;;;;;;;;;10270872;28;20213;-70
2024/01/23 11:33:16;;;;;;;7.68;1.45;;;;;;;;;;10264432;28;20271;-69
2024/01/23 11:38:18;;;;;;;9.30;1.50;;;;;;;;;;10287184;28;20216;-70
2024/01/23 11:43:22;;;;;;;10.75;1.48;;;;;;;;;;10280550;28;21017;-69
2024/01/23 11:48:24;;;;;;;6.35;1.05;;;;;;;;;;10292534;28;20584;-69
2024/01/23 11:53:26;;;;;;;8.43;1.63;;;;;;;;;;10281943;28;20265;-69
2024/01/23 11:58:27;;;;;;;5.05;1.23;;;;;;;;;;10298127;28;20216;-70
2024/01/23 12:03:28;;;;;;;12.57;1.52;;;;;;;;;;10281201;28;20774;-70
2024/01/23 12:08:29;;;;;;;2.00;0.82;;;;;;;;;;10298574;28;20212;-70
2024/01/23 12:13:30;;;;;;;8.45;1.50;;;;;;;;;;10296532;28;20684;-69
2024/01/23 12:18:31;;;;;;;7.75;1.75;;;;;;;;;;10287694;28;20211;-69
2024/01/23 12:23:33;;;;;;;6.85;1.20;;;;;;;;;;10279036;28;20199;-70
2024/01/23 12:28:34;;;;;;;8.20;1.88;;;;;;;;;;10297898;28;20213;-69
2024/01/23 12:33:38;;;;;;;8.73;2.05;;;;;;;;;;10269703;28;20224;-69
2024/01/23 12:38:40;;;;;;;6.53;1.50;;;;;;;;;;10293627;28;20228;-69
2024/01/23 12:43:41;;;;;;;4.53;1.30;;;;;;;;;;10300545;28;20200;-69
2024/01/23 12:48:43;;;;;;;12.50;1.10;;;;;;;;;;10306023;28;20304;-69
2024/01/23 12:53:44;;;;;;;6.35;1.00;;;;;;;;;;10310422;28;20220;-69
2024/01/23 12:58:45;;;;;;;5.60;1.15;;;;;;;;;;10304163;28;20200;-70
2024/01/23 13:03:47;;;;;;;5.63;1.23;;;;;;;;;;10311127;28;20209;-69
2024/01/23 13:08:48;;;;;;;2.92;0.70;;;;;;;;;;10308929;28;20817;-69
2024/01/23 13:13:49;;;;;;;5.47;1.20;;;;;;;;;;10305921;28;20256;-69
2024/01/23 13:18:50;;;;;;;4.75;0.82;;;;;;;;;;10313073;28;20371;-69
2024/01/23 13:23:51;;;;;;;5.65;0.95;;;;;;;;;;10303916;28;20184;-69
2024/01/23 13:28:53;;;;;;;7.05;1.02;;;;;;;;;;10313607;28;20216;-69
2024/01/23 13:33:54;;;;;;;9.90;0.75;;;;;;;;;;10315279;28;20323;-69
2024/01/23 13:38:55;;;;;;;6.82;1.25;;;;;;;;;;10294126;28;20224;-69
2024/01/23 13:43:57;;;;;;;4.15;1.40;;;;;;;;;;10286448;28;20698;-69
2024/01/23 13:48:58;;;;;;;9.13;0.93;;;;;;;;;;10312632;28;20224;-69
2024/01/23 13:53:59;;;;;;;9.35;1.20;;;;;;;;;;10285846;28;20216;-68
2024/01/23 13:59:00;;;;;;;7.30;1.40;;;;;;;;;;10298350;28;20584;-69
2024/01/23 14:04:01;;;;;;;4.57;1.02;;;;;;;;;;10295947;28;20232;-69
2024/01/23 14:09:02;;;;;;;4.13;1.08;;;;;;;;;;10306606;28;20212;-69
2024/01/23 14:14:03;;;;;;;2.83;1.00;;;;;;;;;;10310172;28;20300;-68
2024/01/23 14:19:04;;;;;;;8.93;1.40;;;;;;;;;;10307555;28;20303;-69
2024/01/23 14:24:06;;;;;;;11.27;1.52;;;;;;;;;;10313051;28;20272;-69
2024/01/23 14:29:07;;;;;;;9.07;1.35;;;;;;;;;;10308818;28;20209;-69
2024/01/23 14:34:08;;;;;;;10.40;1.48;;;;;;;;;;10300220;28;20232;-69
2024/01/23 14:39:11;;;;;;;8.70;1.92;;;;;;;;;;10278110;28;20556;-69
2024/01/23 14:44:12;;;;;;;3.92;1.20;;;;;;;;;;10306952;28;20248;-69
2024/01/23 14:49:13;;;;;;;8.75;2.20;;;;;;;;;;10304369;28;20717;-69
2024/01/23 14:54:14;;;;;;;6.50;1.70;;;;;;;;;;10293593;28;20242;-69
2024/01/23 14:59:15;;;;;;;8.82;2.13;;;;;;;;;;10316932;28;20192;-69
2024/01/23 15:04:16;;;;;;;7.20;1.80;;;;;;;;;;10312410;28;20230;-69
2024/01/23 15:09:18;;;;;;;7.15;2.45;;;;;;;;;;10306792;28;20205;-70
2024/01/23 15:14:19;;;;;;;6.65;2.25;;;;;;;;;;10304615;28;20208;-69
2024/01/23 15:19:20;;;;;;;11.52;2.47;;;;;;;;;;10289025;28;20701;-69
2024/01/23 15:24:21;;;;;;;3.78;1.85;;;;;;;;;;10298445;28;20192;-68
2024/01/23 15:29:22;;;;;;;9.63;2.13;;;;;;;;;;10307902;28;20217;-68
2024/01/23 15:34:23;;;;;;;11.32;1.98;;;;;;;;;;10288955;28;20220;-69
2024/01/23 15:39:24;;;;;;;5.88;1.92;;;;;;;;;;10298956;28;20254;-69
2024/01/23 15:44:27;;;;;;;5.38;1.15;;;;;;;;;;10283354;28;20232;-70
2024/01/23 15:49:28;;;;;;;7.57;1.55;;;;;;;;;;10286957;28;20188;-69
2024/01/23 15:54:30;;;;;;;2.78;1.50;;;;;;;;;;10288667;28;20830;-68
2024/01/23 15:59:31;;;;;;;6.28;1.98;;;;;;;;;;10276282;28;20189;-69
2024/01/23 16:04:32;;;;;;;8.40;2.95;;;;;;;;;;10281060;28;20244;-69
2024/01/23 16:09:33;;;;;;;10.48;2.05;;;;;;;;;;10287248;28;20197;-69
2024/01/23 16:14:37;;;;;;;8.38;3.10;;;;;;;;;;10276075;28;20303;-69
2024/01/23 16:19:38;;;;;;;8.68;3.30;;;;;;;;;;10285002;28;20574;-69
2024/01/23 16:24:40;;;;;;;10.73;3.13;;;;;;;;;;10299082;28;20217;-69
2024/01/23 16:29:41;;;;;;;3.78;1.55;;;;;;;;;;10272643;28;20197;-69
2024/01/23 16:34:42;;;;;;;11.15;3.30;;;;;;;;;;10276497;28;20228;-69
2024/01/23 16:39:43;;;;;;;5.57;1.58;;;;;;;;;;10292698;28;20189;-68
2024/01/23 16:44:44;;;;;;;7.93;2.50;;;;;;;;;;10285157;28;20217;-69
2024/01/23 16:49:46;;;;;;;6.60;3.50;;;;;;;;;;10268608;28;20184;-69
2024/01/23 16:54:47;;;;;;;9.68;2.33;;;;;;;;;;10293527;28;20646;-69
2024/01/23 16:59:49;;;;;;;8.68;2.70;;;;;;;;;;10290891;28;20188;-69
2024/01/23 17:04:50;;;;;;;10.43;2.75;;;;;;;;;;10280924;28;20217;-69
2024/01/23 17:09:51;;;;;;;5.80;2.90;;;;;;;;;;10305655;28;20659;-68
2024/01/23 17:14:52;;;;;;;5.25;1.88;;;;;;;;;;10317412;28;20215;-69
2024/01/23 17:19:53;;;;;;;5.57;1.48;;;;;;;;;;10312474;28;20189;-69
2024/01/23 17:24:54;;;;;;;10.48;3.42;;;;;;;;;;10310731;28;20200;-69
2024/01/23 17:29:55;;;;;;;5.43;1.70;;;;;;;;;;10305729;28;20219;-69
2024/01/23 17:34:56;;;;;;;4.25;2.35;;;;;;;;;;10298579;28;20251;-68
2024/01/23 17:40:00;;;;;;;2.70;1.88;;;;;;;;;;10312213;28;20191;-69
2024/01/23 17:45:01;;;;;;;3.92;1.90;;;;;;;;;;10301589;28;20208;-68
2024/01/23 17:50:03;;;;;;;8.48;2.50;;;;;;;;;;10298958;28;20192;-69
2024/01/23 17:55:05;;;;;;;6.53;2.53;;;;;;;;;;10308963;28;20217;-69
2024/01/23 18:00:07;;;;;;;8.77;2.63;;;;;;;;;;10296959;28;20193;-69
2024/01/23 18:05:13;;;;;;;3.25;2.25;;;;;;;;;;10298849;28;20221;-69
2024/01/23 18:10:14;;;;;;;9.85;2.20;;;;;;;;;;10299941;28;20220;-69
2024/01/23 18:15:15;;;;;;;5.47;2.63;;;;;;;;;;10306231;28;20609;-69
2024/01/23 18:20:16;;;;;;;6.90;2.40;;;;;;;;;;10293382;28;20180;-69
2024/01/23 18:25:17;;;;;;;9.93;1.35;;;;;;;;;;10285603;28;20745;-69
2024/01/23 18:30:18;;;;;;;9.32;1.40;;;;;;;;;;10299665;28;20276;-68
2024/01/23 18:35:19;;;;;;;7.35;1.00;;;;;;;;;;10288890;28;20225;-69
2024/01/23 18:40:22;;;;;;;3.15;0.95;;;;;;;;;;10292640;28;20204;-69
2024/01/23 18:45:23;;;;;;;9.68;1.48;;;;;;;;;;10296898;28;20979;-69
2024/01/23 18:50:24;;;;;;;2.63;1.08;;;;;;;;;;10278689;28;20263;-69
2024/01/23 18:55:26;;;;;;;11.43;1.52;;;;;;;;;;10285206;28;20583;-69
2024/01/23 19:00:27;;;;;;;5.63;2.65;;;;;;;;;;10285506;28;20186;-68
2024/01/23 19:05:28;;;;;;;8.55;1.33;;;;;;;;;;10300683;28;20240;-69
2024/01/23 19:10:29;;;;;;;3.97;0.80;;;;;;;;;;10272420;28;20199;-70
2024/01/23 19:15:30;;;;;;;4.25;1.27;;;;;;;;;;10289973;28;20263;-69
2024/01/23 19:20:33;;;;;;;12.65;1.10;;;;;;;;;;10292998;28;20682;-69
2024/01/23 19:25:34;;;;;;;5.18;0.90;;;;;;;;;;10294800;28;20217;-69
2024/01/23 19:30:35;;;;;;;10.25;0.90;;;;;;;;;;10283226;28;20224;-69
2024/01/23 19:35:37;;;;;;;7.00;1.17;;;;;;;;;;10290528;28;20232;-69
2024/01/23 19:40:38;;;;;;;2.97;1.05;;;;;;;;;;10283734;28;20189;-69
2024/01/23 19:45:40;;;;;;;8.68;1.35;;;;;;;;;;10298468;28;20216;-69
2024/01/23 19:50:42;;;;;;;1.60;1.02;;;;;;;;;;10279829;28;20242;-69
2024/01/23 19:55:43;;;;;;;5.95;1.30;;;;;;;;;;10291879;28;20307;-69
2024/01/23 20:00:44;;;;;;;6.88;1.08;;;;;;;;;;10290186;28;20212;-69
2024/01/23 20:05:46;;;;;;;4.47;0.85;;;;;;;;;;10281056;28;20215;-69
2024/01/23 20:10:47;;;;;;;11.45;1.67;;;;;;;;;;10288330;28;20213;-69
2024/01/23 20:15:49;;;;;;;4.20;1.08;;;;;;;;;;10288186;28;20283;-69
2024/01/23 20:20:50;;;;;;;2.55;0.95;;;;;;;;;;10291884;28;20700;-69
2024/01/23 20:25:51;;;;;;;3.83;0.50;;;;;;;;;;10260567;28;20212;-68
2024/01/23 20:30:52;;;;;;;4.47;0.52;;;;;;;;;;10296543;28;20219;-68
2024/01/23 20:35:53;;;;;;;8.15;0.50;;;;;;;;;;10300123;28;20652;-68
2024/01/23 20:40:55;;;;;;;1.67;0.63;;;;;;;;;;10293931;28;20193;-68
2024/01/23 20:45:56;;;;;;;2.28;0.60;;;;;;;;;;10310599;28;20263;-68
2024/01/23 20:50:57;;;;;;;3.63;0.50;;;;;;;;;;10305592;28;20239;-68
2024/01/23 20:55:58;;;;;;;1.83;0.60;;;;;;;;;;10287566;28;20228;-68
2024/01/23 21:01:00;;;;;;;1.83;0.60;;;;;;;;;;10289606;28;20217;-68
2024/01/23 21:06:01;;;;;;;3.97;0.60;;;;;;;;;;10293891;28;20647;-69
2024/01/23 21:11:03;;;;;;;1.73;0.50;;;;;;;;;;10300166;28;20185;-68
2024/01/23 21:16:08;;;;;;;7.35;0.60;;;;;;;;;;10288417;28;20216;-68
2024/01/23 21:21:09;;;;;;;0.55;0.50;;;;;;;;;;10298858;28;20573;-69
2024/01/23 21:26:10;;;;;;;1.85;0.40;;;;;;;;;;10307841;28;20213;-71
2024/01/23 21:31:11;;;;;;;4.03;0.63;;;;;;;;;;10317260;28;20286;-68
2024/01/23 21:36:12;;;;;;;2.22;0.50;;;;;;;;;;10264680;28;20225;-68
2024/01/23 21:41:13;;;;;;;1.80;0.65;;;;;;;;;;10270359;28;20194;-68
2024/01/23 21:46:15;;;;;;;1.55;0.60;;;;;;;;;;10279750;28;20268;-68
2024/01/23 21:51:16;;;;;;;1.27;0.50;;;;;;;;;;10235432;28;20256;-69
2024/01/23 21:56:17;;;;;;;0.82;0.73;;;;;;;;;;10271531;28;20221;-68
2024/01/23 22:01:18;;;;;;;2.35;0.60;;;;;;;;;;10284097;28;20206;-69
2024/01/23 22:06:19;;;;;;;1.52;0.70;;;;;;;;;;10273917;28;20213;-68
2024/01/23 22:11:20;;;;;;;0.40;0.30;;;;;;;;;;10256190;28;20193;-69
2024/01/23 22:16:21;;;;;;;2.40;0.30;;;;;;;;;;10276031;28;20216;-69
2024/01/23 22:21:22;;;;;;;3.20;0.38;;;;;;;;;;10263606;28;20272;-69
2024/01/23 22:26:23;;;;;;;1.33;0.50;;;;;;;;;;10277402;28;20716;-68
2024/01/23 22:31:24;;;;;;;0.50;0.40;;;;;;;;;;10287398;28;20215;-71
2024/01/23 22:36:25;;;;;;;0.80;0.80;;;;;;;;;;10316185;28;20218;-71
2024/01/23 22:41:27;;;;;;;0.93;0.55;;;;;;;;;;10299878;28;20193;-69
2024/01/23 22:46:28;;;;;;;3.17;0.40;;;;;;;;;;10304448;28;20275;-69
2024/01/23 22:51:29;;;;;;;3.50;0.47;;;;;;;;;;10300591;28;20257;-69
2024/01/23 22:56:30;;;;;;;0.30;0.30;;;;;;;;;;10312201;28;20245;-68
2024/01/23 23:01:31;;;;;;;0.30;0.30;;;;;;;;;;10330633;28;20251;-69
2024/01/23 23:06:32;;;;;;;0.88;0.40;;;;;;;;;;10295441;28;20224;-69
2024/01/23 23:11:33;;;;;;;1.25;0.30;;;;;;;;;;10327125;28;20250;-69
2024/01/23 23:16:34;;;;;;;0.20;0.20;;;;;;;;;;10308492;28;20212;-68
2024/01/23 23:21:35;;;;;;;0.10;0.10;;;;;;;;;;10319968;28;20188;-69
2024/01/23 23:26:36;;;;;;;0.20;0.20;;;;;;;;;;10310497;28;20602;-68
2024/01/23 23:31:39;;;;;;;0.85;0.10;;;;;;;;;;10297009;28;20237;-68
2024/01/23 23:36:40;;;;;;;1.20;0.20;;;;;;;;;;10316067;28;20216;-68
2024/01/23 23:41:41;;;;;;;2.17;0.10;;;;;;;;;;10320577;28;20185;-68
2024/01/23 23:46:42;;;;;;;0.10;0.10;;;;;;;;;;10300245;28;20570;-69
2024/01/23 23:51:43;;;;;;;0.10;0.10;;;;;;;;;;10313131;28;20212;-68
2024/01/23 23:56:44;;;;;;;0.10;0.10;;;;;;;;;;10300802;28;20211;-69
